sensor_id;sensor_type;location;lat;lon;timestamp;P1;durP1;ratioP1;P2;durP2;ratioP2
3321;SDS011;1673;51.388;7.086;2022-08-19T00:02:15;16.40;;;12.23;;
3321;SDS011;1673;51.388;7.086;2022-08-19T00:04:45;17.63;;;12.90;;
3321;SDS011;1673;51.388;7.086;2022-08-19T00:07:18;14.63;;;12.07;;
3321;SDS011;1673;51.388;7.086;2022-08-19T00:09:49;16.63;;;12.38;;
3321;SDS011;1673;51.388;7.086;2022-08-19T00:12:24;15.90;;;13.13;;
3321;SDS011;1673;51.388;7.086;2022-08-19T00:14:54;18.92;;;12.85;;
3321;SDS011;1673;51.388;7.086;2022-08-19T00:17:24;19.45;;;12.73;;
3321;SDS011;1673;51.388;7.086;2022-08-19T00:19:53;16.67;;;12.67;;
3321;SDS011;1673;51.388;7.086;2022-08-19T00:22:23;18.02;;;13.15;;
3321;SDS011;1673;51.388;7.086;2022-08-19T00:24:53;16.48;;;12.40;;
3321;SDS011;1673;51.388;7.086;2022-08-19T00:27:30;16.27;;;12.80;;
3321;SDS011;1673;51.388;7.086;2022-08-19T00:30:00;19.85;;;13.35;;
3321;SDS011;1673;51.388;7.086;2022-08-19T00:32:30;17.80;;;12.57;;
3321;SDS011;1673;51.388;7.086;2022-08-19T00:35:00;16.20;;;13.20;;
3321;SDS011;1673;51.388;7.086;2022-08-19T00:37:30;18.20;;;12.52;;
3321;SDS011;1673;51.388;7.086;2022-08-19T00:40:02;18.40;;;13.23;;
3321;SDS011;1673;51.388;7.086;2022-08-19T00:42:36;16.45;;;12.60;;
3321;SDS011;1673;51.388;7.086;2022-08-19T00:45:10;19.90;;;13.77;;
3321;SDS011;1673;51.388;7.086;2022-08-19T00:47:43;15.95;;;12.13;;
3321;SDS011;1673;51.388;7.086;2022-08-19T00:50:14;19.63;;;12.80;;
3321;SDS011;1673;51.388;7.086;2022-08-19T00:52:45;16.10;;;12.27;;
3321;SDS011;1673;51.388;7.086;2022-08-19T00:55:18;15.95;;;13.00;;
3321;SDS011;1673;51.388;7.086;2022-08-19T00:57:53;18.13;;;13.00;;
3321;SDS011;1673;51.388;7.086;2022-08-19T01:00:25;18.23;;;12.60;;
3321;SDS011;1673;51.388;7.086;2022-08-19T01:02:56;17.85;;;12.63;;
3321;SDS011;1673;51.388;7.086;2022-08-19T01:05:27;15.13;;;12.48;;
3321;SDS011;1673;51.388;7.086;2022-08-19T01:07:58;14.80;;;12.30;;
3321;SDS011;1673;51.388;7.086;2022-08-19T01:10:29;17.92;;;12.85;;
3321;SDS011;1673;51.388;7.086;2022-08-19T01:13:05;17.92;;;13.15;;
3321;SDS011;1673;51.388;7.086;2022-08-19T01:15:36;17.85;;;12.73;;
3321;SDS011;1673;51.388;7.086;2022-08-19T01:18:11;19.73;;;13.20;;
3321;SDS011;1673;51.388;7.086;2022-08-19T01:20:42;22.58;;;12.60;;
3321;SDS011;1673;51.388;7.086;2022-08-19T01:23:15;16.35;;;12.50;;
3321;SDS011;1673;51.388;7.086;2022-08-19T01:25:49;21.38;;;13.40;;
3321;SDS011;1673;51.388;7.086;2022-08-19T01:28:21;18.75;;;13.07;;
3321;SDS011;1673;51.388;7.086;2022-08-19T01:31:05;17.77;;;13.88;;
3321;SDS011;1673;51.388;7.086;2022-08-19T01:33:53;16.65;;;12.93;;
3321;SDS011;1673;51.388;7.086;2022-08-19T01:36:26;18.15;;;13.60;;
3321;SDS011;1673;51.388;7.086;2022-08-19T01:39:00;19.58;;;13.90;;
3321;SDS011;1673;51.388;7.086;2022-08-19T01:41:32;18.67;;;13.95;;
3321;SDS011;1673;51.388;7.086;2022-08-19T01:44:02;17.07;;;13.13;;
3321;SDS011;1673;51.388;7.086;2022-08-19T01:46:45;18.80;;;13.40;;
3321;SDS011;1673;51.388;7.086;2022-08-19T01:49:17;17.58;;;13.10;;
3321;SDS011;1673;51.388;7.086;2022-08-19T01:51:49;16.35;;;12.85;;
3321;SDS011;1673;51.388;7.086;2022-08-19T01:54:22;16.17;;;12.40;;
3321;SDS011;1673;51.388;7.086;2022-08-19T01:56:54;16.77;;;12.98;;
3321;SDS011;1673;51.388;7.086;2022-08-19T01:59:26;15.45;;;13.02;;
3321;SDS011;1673;51.388;7.086;2022-08-19T02:01:57;17.45;;;13.18;;
3321;SDS011;1673;51.388;7.086;2022-08-19T02:04:27;17.95;;;13.98;;
3321;SDS011;1673;51.388;7.086;2022-08-19T02:06:57;18.73;;;13.60;;
3321;SDS011;1673;51.388;7.086;2022-08-19T02:09:29;21.90;;;13.88;;
3321;SDS011;1673;51.388;7.086;2022-08-19T02:11:59;20.20;;;13.90;;
3321;SDS011;1673;51.388;7.086;2022-08-19T02:14:29;17.23;;;13.20;;
3321;SDS011;1673;51.388;7.086;2022-08-19T02:16:59;17.47;;;14.07;;
3321;SDS011;1673;51.388;7.086;2022-08-19T02:19:28;17.80;;;13.20;;
3321;SDS011;1673;51.388;7.086;2022-08-19T02:21:59;21.37;;;14.77;;
3321;SDS011;1673;51.388;7.086;2022-08-19T02:24:31;18.88;;;13.90;;
3321;SDS011;1673;51.388;7.086;2022-08-19T02:27:01;19.58;;;13.20;;
3321;SDS011;1673;51.388;7.086;2022-08-19T02:29:31;17.90;;;13.75;;
3321;SDS011;1673;51.388;7.086;2022-08-19T02:32:01;17.10;;;12.95;;
3321;SDS011;1673;51.388;7.086;2022-08-19T02:34:31;23.10;;;14.80;;
3321;SDS011;1673;51.388;7.086;2022-08-19T02:37:01;18.83;;;13.93;;
3321;SDS011;1673;51.388;7.086;2022-08-19T02:39:34;17.63;;;13.85;;
3321;SDS011;1673;51.388;7.086;2022-08-19T02:42:01;21.63;;;14.40;;
3321;SDS011;1673;51.388;7.086;2022-08-19T02:44:31;17.70;;;14.15;;
3321;SDS011;1673;51.388;7.086;2022-08-19T02:47:00;19.42;;;13.35;;
3321;SDS011;1673;51.388;7.086;2022-08-19T02:49:30;22.80;;;14.50;;
3321;SDS011;1673;51.388;7.086;2022-08-19T02:52:00;19.60;;;14.38;;
3321;SDS011;1673;51.388;7.086;2022-08-19T02:54:30;21.65;;;14.63;;
3321;SDS011;1673;51.388;7.086;2022-08-19T02:57:03;22.70;;;14.80;;
3321;SDS011;1673;51.388;7.086;2022-08-19T02:59:34;19.23;;;14.18;;
3321;SDS011;1673;51.388;7.086;2022-08-19T03:02:04;19.30;;;14.00;;
3321;SDS011;1673;51.388;7.086;2022-08-19T03:04:33;20.10;;;13.02;;
3321;SDS011;1673;51.388;7.086;2022-08-19T03:07:03;21.30;;;13.50;;
3321;SDS011;1673;51.388;7.086;2022-08-19T03:09:37;18.88;;;13.70;;
3321;SDS011;1673;51.388;7.086;2022-08-19T03:12:11;18.33;;;13.63;;
3321;SDS011;1673;51.388;7.086;2022-08-19T03:14:41;17.80;;;13.70;;
3321;SDS011;1673;51.388;7.086;2022-08-19T03:17:11;20.60;;;14.75;;
3321;SDS011;1673;51.388;7.086;2022-08-19T03:19:41;20.88;;;14.05;;
3321;SDS011;1673;51.388;7.086;2022-08-19T03:22:12;19.00;;;14.18;;
3321;SDS011;1673;51.388;7.086;2022-08-19T03:24:41;19.38;;;15.13;;
3321;SDS011;1673;51.388;7.086;2022-08-19T03:27:14;20.77;;;14.40;;
3321;SDS011;1673;51.388;7.086;2022-08-19T03:29:43;18.67;;;13.70;;
3321;SDS011;1673;51.388;7.086;2022-08-19T03:32:14;19.33;;;14.32;;
3321;SDS011;1673;51.388;7.086;2022-08-19T03:34:58;18.37;;;14.00;;
3321;SDS011;1673;51.388;7.086;2022-08-19T03:37:28;19.63;;;13.20;;
3321;SDS011;1673;51.388;7.086;2022-08-19T03:39:58;19.30;;;14.63;;
3321;SDS011;1673;51.388;7.086;2022-08-19T03:42:32;19.63;;;13.90;;
3321;SDS011;1673;51.388;7.086;2022-08-19T03:45:22;20.17;;;14.15;;
3321;SDS011;1673;51.388;7.086;2022-08-19T03:47:54;20.05;;;14.05;;
3321;SDS011;1673;51.388;7.086;2022-08-19T03:50:24;21.45;;;14.40;;
3321;SDS011;1673;51.388;7.086;2022-08-19T03:52:54;17.90;;;13.35;;
3321;SDS011;1673;51.388;7.086;2022-08-19T03:55:24;20.60;;;14.40;;
3321;SDS011;1673;51.388;7.086;2022-08-19T03:57:56;20.05;;;14.23;;
3321;SDS011;1673;51.388;7.086;2022-08-19T04:00:26;19.80;;;14.05;;
3321;SDS011;1673;51.388;7.086;2022-08-19T04:02:55;21.83;;;14.93;;
3321;SDS011;1673;51.388;7.086;2022-08-19T04:05:26;18.30;;;13.53;;
3321;SDS011;1673;51.388;7.086;2022-08-19T04:07:57;19.85;;;14.20;;
3321;SDS011;1673;51.388;7.086;2022-08-19T04:10:27;19.67;;;14.95;;
3321;SDS011;1673;51.388;7.086;2022-08-19T04:13:00;17.23;;;13.57;;
3321;SDS011;1673;51.388;7.086;2022-08-19T04:15:30;18.92;;;13.95;;
3321;SDS011;1673;51.388;7.086;2022-08-19T04:18:05;20.90;;;14.80;;
3321;SDS011;1673;51.388;7.086;2022-08-19T04:20:39;19.10;;;14.52;;
3321;SDS011;1673;51.388;7.086;2022-08-19T04:23:12;22.23;;;15.75;;
3321;SDS011;1673;51.388;7.086;2022-08-19T04:25:43;22.02;;;14.63;;
3321;SDS011;1673;51.388;7.086;2022-08-19T04:28:15;19.05;;;14.40;;
3321;SDS011;1673;51.388;7.086;2022-08-19T04:30:49;20.10;;;15.15;;
3321;SDS011;1673;51.388;7.086;2022-08-19T04:33:22;19.30;;;14.80;;
3321;SDS011;1673;51.388;7.086;2022-08-19T04:35:54;20.95;;;15.07;;
3321;SDS011;1673;51.388;7.086;2022-08-19T04:38:24;19.97;;;13.80;;
3321;SDS011;1673;51.388;7.086;2022-08-19T04:40:54;16.85;;;13.88;;
3321;SDS011;1673;51.388;7.086;2022-08-19T04:43:39;23.55;;;15.18;;
3321;SDS011;1673;51.388;7.086;2022-08-19T04:46:11;20.92;;;14.27;;
3321;SDS011;1673;51.388;7.086;2022-08-19T04:49:03;21.08;;;14.50;;
3321;SDS011;1673;51.388;7.086;2022-08-19T04:51:40;21.25;;;14.23;;
3321;SDS011;1673;51.388;7.086;2022-08-19T04:54:11;22.60;;;15.55;;
3321;SDS011;1673;51.388;7.086;2022-08-19T04:56:56;24.85;;;14.07;;
3321;SDS011;1673;51.388;7.086;2022-08-19T04:59:28;19.10;;;14.07;;
3321;SDS011;1673;51.388;7.086;2022-08-19T05:01:58;19.75;;;14.20;;
3321;SDS011;1673;51.388;7.086;2022-08-19T05:04:28;21.02;;;14.25;;
3321;SDS011;1673;51.388;7.086;2022-08-19T05:06:59;21.60;;;15.05;;
3321;SDS011;1673;51.388;7.086;2022-08-19T05:09:29;22.60;;;14.93;;
3321;SDS011;1673;51.388;7.086;2022-08-19T05:12:19;19.00;;;14.00;;
3321;SDS011;1673;51.388;7.086;2022-08-19T05:14:57;20.83;;;14.30;;
3321;SDS011;1673;51.388;7.086;2022-08-19T05:17:27;22.50;;;13.95;;
3321;SDS011;1673;51.388;7.086;2022-08-19T05:20:03;20.35;;;13.73;;
3321;SDS011;1673;51.388;7.086;2022-08-19T05:22:46;21.30;;;14.70;;
3321;SDS011;1673;51.388;7.086;2022-08-19T05:25:18;21.60;;;14.50;;
3321;SDS011;1673;51.388;7.086;2022-08-19T05:27:50;23.10;;;14.48;;
3321;SDS011;1673;51.388;7.086;2022-08-19T05:30:23;22.95;;;15.30;;
3321;SDS011;1673;51.388;7.086;2022-08-19T05:33:12;18.88;;;14.35;;
3321;SDS011;1673;51.388;7.086;2022-08-19T05:35:41;22.63;;;14.70;;
3321;SDS011;1673;51.388;7.086;2022-08-19T05:38:12;22.10;;;15.03;;
3321;SDS011;1673;51.388;7.086;2022-08-19T05:40:42;28.35;;;15.07;;
3321;SDS011;1673;51.388;7.086;2022-08-19T05:43:15;22.55;;;16.40;;
3321;SDS011;1673;51.388;7.086;2022-08-19T05:45:48;21.00;;;15.40;;
3321;SDS011;1673;51.388;7.086;2022-08-19T05:48:17;21.00;;;15.43;;
3321;SDS011;1673;51.388;7.086;2022-08-19T05:50:47;20.40;;;13.57;;
3321;SDS011;1673;51.388;7.086;2022-08-19T05:53:17;23.88;;;16.10;;
3321;SDS011;1673;51.388;7.086;2022-08-19T05:55:47;25.00;;;15.20;;
3321;SDS011;1673;51.388;7.086;2022-08-19T05:58:17;24.13;;;16.00;;
3321;SDS011;1673;51.388;7.086;2022-08-19T06:00:54;20.57;;;14.40;;
3321;SDS011;1673;51.388;7.086;2022-08-19T06:03:24;21.30;;;14.70;;
3321;SDS011;1673;51.388;7.086;2022-08-19T06:05:54;21.80;;;15.13;;
3321;SDS011;1673;51.388;7.086;2022-08-19T06:08:25;24.90;;;15.63;;
3321;SDS011;1673;51.388;7.086;2022-08-19T06:11:11;24.88;;;15.13;;
3321;SDS011;1673;51.388;7.086;2022-08-19T06:13:43;20.58;;;14.23;;
3321;SDS011;1673;51.388;7.086;2022-08-19T06:16:18;18.80;;;14.32;;
3321;SDS011;1673;51.388;7.086;2022-08-19T06:18:51;21.00;;;15.30;;
3321;SDS011;1673;51.388;7.086;2022-08-19T06:21:24;27.88;;;16.75;;
3321;SDS011;1673;51.388;7.086;2022-08-19T06:23:55;22.48;;;15.40;;
3321;SDS011;1673;51.388;7.086;2022-08-19T06:26:26;25.33;;;16.73;;
3321;SDS011;1673;51.388;7.086;2022-08-19T06:28:56;27.67;;;16.23;;
3321;SDS011;1673;51.388;7.086;2022-08-19T06:31:28;24.43;;;17.93;;
3321;SDS011;1673;51.388;7.086;2022-08-19T06:34:00;30.02;;;18.30;;
3321;SDS011;1673;51.388;7.086;2022-08-19T06:36:31;31.58;;;17.40;;
3321;SDS011;1673;51.388;7.086;2022-08-19T06:39:03;27.60;;;17.45;;
3321;SDS011;1673;51.388;7.086;2022-08-19T06:41:35;28.38;;;18.20;;
3321;SDS011;1673;51.388;7.086;2022-08-19T06:44:16;28.30;;;18.90;;
3321;SDS011;1673;51.388;7.086;2022-08-19T06:46:49;32.80;;;19.53;;
3321;SDS011;1673;51.388;7.086;2022-08-19T06:49:20;29.07;;;17.77;;
3321;SDS011;1673;51.388;7.086;2022-08-19T06:51:58;29.05;;;17.30;;
3321;SDS011;1673;51.388;7.086;2022-08-19T06:54:28;32.13;;;19.63;;
3321;SDS011;1673;51.388;7.086;2022-08-19T06:57:11;24.90;;;17.95;;
3321;SDS011;1673;51.388;7.086;2022-08-19T06:59:41;33.57;;;19.67;;
3321;SDS011;1673;51.388;7.086;2022-08-19T07:02:14;28.55;;;20.23;;
3321;SDS011;1673;51.388;7.086;2022-08-19T07:05:04;32.78;;;21.13;;
3321;SDS011;1673;51.388;7.086;2022-08-19T07:07:36;33.65;;;22.08;;
3321;SDS011;1673;51.388;7.086;2022-08-19T07:10:13;38.13;;;24.35;;
3321;SDS011;1673;51.388;7.086;2022-08-19T07:12:43;37.10;;;24.60;;
3321;SDS011;1673;51.388;7.086;2022-08-19T07:15:14;43.53;;;25.45;;
3321;SDS011;1673;51.388;7.086;2022-08-19T07:17:46;45.23;;;28.23;;
3321;SDS011;1673;51.388;7.086;2022-08-19T07:20:18;50.13;;;29.45;;
3321;SDS011;1673;51.388;7.086;2022-08-19T07:22:54;48.30;;;30.70;;
3321;SDS011;1673;51.388;7.086;2022-08-19T07:25:23;61.72;;;37.42;;
3321;SDS011;1673;51.388;7.086;2022-08-19T07:27:58;54.72;;;33.88;;
3321;SDS011;1673;51.388;7.086;2022-08-19T07:30:28;50.90;;;31.45;;
3321;SDS011;1673;51.388;7.086;2022-08-19T07:33:02;50.35;;;30.35;;
3321;SDS011;1673;51.388;7.086;2022-08-19T07:35:32;50.93;;;30.43;;
3321;SDS011;1673;51.388;7.086;2022-08-19T07:38:02;49.35;;;31.60;;
3321;SDS011;1673;51.388;7.086;2022-08-19T07:40:32;50.85;;;30.73;;
3321;SDS011;1673;51.388;7.086;2022-08-19T07:43:02;49.25;;;30.45;;
3321;SDS011;1673;51.388;7.086;2022-08-19T07:45:32;47.75;;;29.48;;
3321;SDS011;1673;51.388;7.086;2022-08-19T07:48:04;47.10;;;29.00;;
3321;SDS011;1673;51.388;7.086;2022-08-19T07:50:34;51.83;;;29.80;;
3321;SDS011;1673;51.388;7.086;2022-08-19T07:53:04;50.40;;;29.55;;
3321;SDS011;1673;51.388;7.086;2022-08-19T07:55:33;54.22;;;31.67;;
3321;SDS011;1673;51.388;7.086;2022-08-19T07:58:09;52.00;;;30.20;;
3321;SDS011;1673;51.388;7.086;2022-08-19T08:00:40;48.35;;;30.00;;
3321;SDS011;1673;51.388;7.086;2022-08-19T08:03:13;49.58;;;30.45;;
3321;SDS011;1673;51.388;7.086;2022-08-19T08:05:44;50.25;;;31.15;;
3321;SDS011;1673;51.388;7.086;2022-08-19T08:08:26;58.55;;;34.88;;
3321;SDS011;1673;51.388;7.086;2022-08-19T08:11:13;60.97;;;36.33;;
3321;SDS011;1673;51.388;7.086;2022-08-19T08:13:46;51.25;;;33.10;;
3321;SDS011;1673;51.388;7.086;2022-08-19T08:16:26;54.97;;;33.60;;
3321;SDS011;1673;51.388;7.086;2022-08-19T08:19:00;56.42;;;36.28;;
3321;SDS011;1673;51.388;7.086;2022-08-19T08:21:46;57.03;;;37.53;;
3321;SDS011;1673;51.388;7.086;2022-08-19T08:24:16;60.03;;;37.53;;
3321;SDS011;1673;51.388;7.086;2022-08-19T08:26:46;57.38;;;35.80;;
3321;SDS011;1673;51.388;7.086;2022-08-19T08:29:17;62.42;;;37.55;;
3321;SDS011;1673;51.388;7.086;2022-08-19T08:31:51;61.55;;;38.00;;
3321;SDS011;1673;51.388;7.086;2022-08-19T08:34:28;59.88;;;38.00;;
3321;SDS011;1673;51.388;7.086;2022-08-19T08:36:58;67.38;;;40.40;;
3321;SDS011;1673;51.388;7.086;2022-08-19T08:39:27;63.67;;;39.20;;
3321;SDS011;1673;51.388;7.086;2022-08-19T08:41:59;65.53;;;40.22;;
3321;SDS011;1673;51.388;7.086;2022-08-19T08:44:44;66.55;;;39.40;;
3321;SDS011;1673;51.388;7.086;2022-08-19T08:47:18;76.82;;;43.63;;
3321;SDS011;1673;51.388;7.086;2022-08-19T08:49:53;60.72;;;39.67;;
3321;SDS011;1673;51.388;7.086;2022-08-19T08:52:26;58.60;;;37.00;;
3321;SDS011;1673;51.388;7.086;2022-08-19T08:55:03;65.65;;;39.88;;
3321;SDS011;1673;51.388;7.086;2022-08-19T08:57:38;65.22;;;41.28;;
3321;SDS011;1673;51.388;7.086;2022-08-19T09:00:10;66.07;;;40.37;;
3321;SDS011;1673;51.388;7.086;2022-08-19T09:02:44;60.15;;;39.97;;
3321;SDS011;1673;51.388;7.086;2022-08-19T09:05:19;67.13;;;42.63;;
3321;SDS011;1673;51.388;7.086;2022-08-19T09:07:52;59.53;;;38.85;;
3321;SDS011;1673;51.388;7.086;2022-08-19T09:10:28;60.60;;;39.45;;
3321;SDS011;1673;51.388;7.086;2022-08-19T09:13:11;55.67;;;37.97;;
3321;SDS011;1673;51.388;7.086;2022-08-19T09:15:51;54.50;;;36.30;;
3321;SDS011;1673;51.388;7.086;2022-08-19T09:18:23;54.85;;;34.10;;
3321;SDS011;1673;51.388;7.086;2022-08-19T09:20:57;47.83;;;31.73;;
3321;SDS011;1673;51.388;7.086;2022-08-19T09:23:27;46.53;;;30.92;;
3321;SDS011;1673;51.388;7.086;2022-08-19T09:26:01;41.60;;;29.00;;
3321;SDS011;1673;51.388;7.086;2022-08-19T09:28:35;37.55;;;27.52;;
3321;SDS011;1673;51.388;7.086;2022-08-19T09:31:14;45.58;;;28.63;;
3321;SDS011;1673;51.388;7.086;2022-08-19T09:33:45;45.90;;;28.25;;
3321;SDS011;1673;51.388;7.086;2022-08-19T09:36:21;33.30;;;22.83;;
3321;SDS011;1673;51.388;7.086;2022-08-19T09:39:00;32.28;;;21.30;;
3321;SDS011;1673;51.388;7.086;2022-08-19T09:41:41;32.92;;;22.23;;
3321;SDS011;1673;51.388;7.086;2022-08-19T09:44:14;32.93;;;21.70;;
3321;SDS011;1673;51.388;7.086;2022-08-19T09:46:44;28.95;;;20.52;;
3321;SDS011;1673;51.388;7.086;2022-08-19T09:49:15;28.05;;;20.30;;
3321;SDS011;1673;51.388;7.086;2022-08-19T09:51:49;27.60;;;18.40;;
3321;SDS011;1673;51.388;7.086;2022-08-19T09:54:22;32.92;;;20.52;;
3321;SDS011;1673;51.388;7.086;2022-08-19T09:56:52;24.17;;;17.52;;
3321;SDS011;1673;51.388;7.086;2022-08-19T09:59:22;33.60;;;20.10;;
3321;SDS011;1673;51.388;7.086;2022-08-19T10:01:52;27.13;;;17.45;;
3321;SDS011;1673;51.388;7.086;2022-08-19T10:04:29;28.55;;;18.00;;
3321;SDS011;1673;51.388;7.086;2022-08-19T10:07:14;24.67;;;16.77;;
3321;SDS011;1673;51.388;7.086;2022-08-19T10:09:43;22.00;;;15.50;;
3321;SDS011;1673;51.388;7.086;2022-08-19T10:12:13;21.85;;;15.25;;
3321;SDS011;1673;51.388;7.086;2022-08-19T10:14:45;20.88;;;16.30;;
3321;SDS011;1673;51.388;7.086;2022-08-19T10:17:17;28.15;;;16.67;;
3321;SDS011;1673;51.388;7.086;2022-08-19T10:19:52;23.93;;;15.10;;
3321;SDS011;1673;51.388;7.086;2022-08-19T10:22:25;26.67;;;16.25;;
3321;SDS011;1673;51.388;7.086;2022-08-19T10:24:56;24.33;;;16.33;;
3321;SDS011;1673;51.388;7.086;2022-08-19T10:27:26;25.13;;;17.25;;
3321;SDS011;1673;51.388;7.086;2022-08-19T10:29:57;27.23;;;18.67;;
3321;SDS011;1673;51.388;7.086;2022-08-19T10:32:28;24.60;;;17.07;;
3321;SDS011;1673;51.388;7.086;2022-08-19T10:35:00;23.80;;;16.10;;
3321;SDS011;1673;51.388;7.086;2022-08-19T10:37:35;25.42;;;17.10;;
3321;SDS011;1673;51.388;7.086;2022-08-19T10:40:23;31.75;;;21.60;;
3321;SDS011;1673;51.388;7.086;2022-08-19T10:42:52;27.25;;;18.85;;
3321;SDS011;1673;51.388;7.086;2022-08-19T10:45:23;24.55;;;18.00;;
3321;SDS011;1673;51.388;7.086;2022-08-19T10:47:53;25.00;;;18.25;;
3321;SDS011;1673;51.388;7.086;2022-08-19T10:50:24;31.42;;;22.25;;
3321;SDS011;1673;51.388;7.086;2022-08-19T10:53:09;29.40;;;21.13;;
3321;SDS011;1673;51.388;7.086;2022-08-19T10:55:39;30.27;;;20.38;;
3321;SDS011;1673;51.388;7.086;2022-08-19T10:58:21;30.17;;;21.02;;
3321;SDS011;1673;51.388;7.086;2022-08-19T11:00:53;33.03;;;24.63;;
3321;SDS011;1673;51.388;7.086;2022-08-19T11:03:24;33.22;;;22.55;;
3321;SDS011;1673;51.388;7.086;2022-08-19T11:05:59;33.90;;;22.38;;
3321;SDS011;1673;51.388;7.086;2022-08-19T11:08:32;30.15;;;18.40;;
3321;SDS011;1673;51.388;7.086;2022-08-19T11:11:05;25.70;;;18.77;;
3321;SDS011;1673;51.388;7.086;2022-08-19T11:13:36;27.42;;;20.77;;
3321;SDS011;1673;51.388;7.086;2022-08-19T11:16:07;30.42;;;21.63;;
3321;SDS011;1673;51.388;7.086;2022-08-19T11:18:40;35.67;;;22.92;;
3321;SDS011;1673;51.388;7.086;2022-08-19T11:21:13;32.80;;;22.75;;
3321;SDS011;1673;51.388;7.086;2022-08-19T11:23:48;29.17;;;20.80;;
3321;SDS011;1673;51.388;7.086;2022-08-19T11:26:20;22.90;;;16.67;;
3321;SDS011;1673;51.388;7.086;2022-08-19T11:28:50;34.47;;;22.55;;
3321;SDS011;1673;51.388;7.086;2022-08-19T11:31:22;28.42;;;20.73;;
3321;SDS011;1673;51.388;7.086;2022-08-19T11:33:55;32.38;;;22.98;;
3321;SDS011;1673;51.388;7.086;2022-08-19T11:36:26;26.48;;;20.65;;
3321;SDS011;1673;51.388;7.086;2022-08-19T11:39:00;29.83;;;22.80;;
3321;SDS011;1673;51.388;7.086;2022-08-19T11:41:30;27.58;;;22.38;;
3321;SDS011;1673;51.388;7.086;2022-08-19T11:44:00;25.75;;;20.40;;
3321;SDS011;1673;51.388;7.086;2022-08-19T11:46:31;23.67;;;18.38;;
3321;SDS011;1673;51.388;7.086;2022-08-19T11:49:01;24.60;;;17.60;;
3321;SDS011;1673;51.388;7.086;2022-08-19T11:51:36;22.50;;;17.17;;
3321;SDS011;1673;51.388;7.086;2022-08-19T11:54:08;22.10;;;17.13;;
3321;SDS011;1673;51.388;7.086;2022-08-19T11:56:39;20.53;;;16.17;;
3321;SDS011;1673;51.388;7.086;2022-08-19T11:59:09;26.60;;;18.20;;
3321;SDS011;1673;51.388;7.086;2022-08-19T12:01:40;26.40;;;16.42;;
3321;SDS011;1673;51.388;7.086;2022-08-19T12:04:10;21.23;;;16.23;;
3321;SDS011;1673;51.388;7.086;2022-08-19T12:06:40;27.15;;;19.27;;
3321;SDS011;1673;51.388;7.086;2022-08-19T12:09:13;24.02;;;16.40;;
3321;SDS011;1673;51.388;7.086;2022-08-19T12:11:43;19.50;;;14.70;;
3321;SDS011;1673;51.388;7.086;2022-08-19T12:14:13;20.48;;;15.20;;
3321;SDS011;1673;51.388;7.086;2022-08-19T12:16:44;17.35;;;14.43;;
3321;SDS011;1673;51.388;7.086;2022-08-19T12:19:18;17.73;;;12.83;;
3321;SDS011;1673;51.388;7.086;2022-08-19T12:21:48;16.70;;;13.20;;
3321;SDS011;1673;51.388;7.086;2022-08-19T12:24:21;17.60;;;13.20;;
3321;SDS011;1673;51.388;7.086;2022-08-19T12:26:51;17.63;;;13.23;;
3321;SDS011;1673;51.388;7.086;2022-08-19T12:29:26;16.40;;;12.70;;
3321;SDS011;1673;51.388;7.086;2022-08-19T12:31:57;19.33;;;11.60;;
3321;SDS011;1673;51.388;7.086;2022-08-19T12:34:31;16.73;;;11.60;;
3321;SDS011;1673;51.388;7.086;2022-08-19T12:37:04;13.90;;;10.10;;
3321;SDS011;1673;51.388;7.086;2022-08-19T12:39:38;11.50;;;9.20;;
3321;SDS011;1673;51.388;7.086;2022-08-19T12:42:09;12.57;;;9.80;;
3321;SDS011;1673;51.388;7.086;2022-08-19T12:44:40;14.48;;;10.57;;
3321;SDS011;1673;51.388;7.086;2022-08-19T12:47:11;12.63;;;11.30;;
3321;SDS011;1673;51.388;7.086;2022-08-19T12:49:45;16.20;;;12.50;;
3321;SDS011;1673;51.388;7.086;2022-08-19T12:52:20;15.73;;;12.38;;
3321;SDS011;1673;51.388;7.086;2022-08-19T12:54:54;15.23;;;11.30;;
3321;SDS011;1673;51.388;7.086;2022-08-19T12:57:26;16.98;;;11.90;;
3321;SDS011;1673;51.388;7.086;2022-08-19T12:59:59;16.73;;;10.88;;
3321;SDS011;1673;51.388;7.086;2022-08-19T13:02:31;16.35;;;11.50;;
3321;SDS011;1673;51.388;7.086;2022-08-19T13:05:04;14.45;;;10.80;;
3321;SDS011;1673;51.388;7.086;2022-08-19T13:07:38;13.48;;;10.60;;
3321;SDS011;1673;51.388;7.086;2022-08-19T13:10:14;12.38;;;10.10;;
3321;SDS011;1673;51.388;7.086;2022-08-19T13:12:47;13.67;;;9.70;;
3321;SDS011;1673;51.388;7.086;2022-08-19T13:15:18;15.55;;;10.40;;
3321;SDS011;1673;51.388;7.086;2022-08-19T13:17:50;12.90;;;9.63;;
3321;SDS011;1673;51.388;7.086;2022-08-19T13:20:22;14.57;;;9.20;;
3321;SDS011;1673;51.388;7.086;2022-08-19T13:22:52;11.80;;;8.53;;
3321;SDS011;1673;51.388;7.086;2022-08-19T13:25:26;11.30;;;8.23;;
3321;SDS011;1673;51.388;7.086;2022-08-19T13:27:56;12.93;;;7.93;;
3321;SDS011;1673;51.388;7.086;2022-08-19T13:30:25;12.88;;;8.38;;
3321;SDS011;1673;51.388;7.086;2022-08-19T13:33:08;13.55;;;9.07;;
3321;SDS011;1673;51.388;7.086;2022-08-19T13:35:43;15.27;;;9.13;;
3321;SDS011;1673;51.388;7.086;2022-08-19T13:38:15;11.75;;;8.73;;
3321;SDS011;1673;51.388;7.086;2022-08-19T13:40:49;14.20;;;9.60;;
3321;SDS011;1673;51.388;7.086;2022-08-19T13:43:22;13.07;;;8.90;;
3321;SDS011;1673;51.388;7.086;2022-08-19T13:45:54;10.52;;;9.23;;
3321;SDS011;1673;51.388;7.086;2022-08-19T13:48:24;10.38;;;8.27;;
3321;SDS011;1673;51.388;7.086;2022-08-19T13:50:55;12.18;;;8.15;;
3321;SDS011;1673;51.388;7.086;2022-08-19T13:53:25;11.63;;;7.97;;
3321;SDS011;1673;51.388;7.086;2022-08-19T13:55:57;13.63;;;7.80;;
3321;SDS011;1673;51.388;7.086;2022-08-19T13:58:27;9.93;;;6.97;;
3321;SDS011;1673;51.388;7.086;2022-08-19T14:00:57;9.40;;;6.80;;
3321;SDS011;1673;51.388;7.086;2022-08-19T14:03:28;8.65;;;6.60;;
3321;SDS011;1673;51.388;7.086;2022-08-19T14:05:57;11.95;;;7.78;;
3321;SDS011;1673;51.388;7.086;2022-08-19T14:08:27;12.88;;;7.80;;
3321;SDS011;1673;51.388;7.086;2022-08-19T14:11:01;12.50;;;8.10;;
3321;SDS011;1673;51.388;7.086;2022-08-19T14:13:32;14.53;;;6.90;;
3321;SDS011;1673;51.388;7.086;2022-08-19T14:16:05;9.77;;;6.70;;
3321;SDS011;1673;51.388;7.086;2022-08-19T14:18:36;11.45;;;7.20;;
3321;SDS011;1673;51.388;7.086;2022-08-19T14:21:06;9.15;;;6.40;;
3321;SDS011;1673;51.388;7.086;2022-08-19T14:23:37;12.25;;;6.57;;
3321;SDS011;1673;51.388;7.086;2022-08-19T14:26:10;8.90;;;6.30;;
3321;SDS011;1673;51.388;7.086;2022-08-19T14:28:41;8.27;;;5.60;;
3321;SDS011;1673;51.388;7.086;2022-08-19T14:31:11;11.27;;;6.03;;
3321;SDS011;1673;51.388;7.086;2022-08-19T14:33:43;12.48;;;6.30;;
3321;SDS011;1673;51.388;7.086;2022-08-19T14:36:12;12.15;;;5.95;;
3321;SDS011;1673;51.388;7.086;2022-08-19T14:38:42;8.60;;;5.97;;
3321;SDS011;1673;51.388;7.086;2022-08-19T14:41:15;10.32;;;6.00;;
3321;SDS011;1673;51.388;7.086;2022-08-19T14:43:47;9.75;;;6.18;;
3321;SDS011;1673;51.388;7.086;2022-08-19T14:46:18;9.70;;;6.10;;
3321;SDS011;1673;51.388;7.086;2022-08-19T14:48:50;11.05;;;5.90;;
3321;SDS011;1673;51.388;7.086;2022-08-19T14:51:22;11.87;;;6.40;;
3321;SDS011;1673;51.388;7.086;2022-08-19T14:53:53;10.00;;;6.57;;
3321;SDS011;1673;51.388;7.086;2022-08-19T14:56:26;12.35;;;6.70;;
3321;SDS011;1673;51.388;7.086;2022-08-19T14:58:57;11.48;;;6.60;;
3321;SDS011;1673;51.388;7.086;2022-08-19T15:01:28;11.68;;;6.65;;
3321;SDS011;1673;51.388;7.086;2022-08-19T15:03:58;11.27;;;6.40;;
3321;SDS011;1673;51.388;7.086;2022-08-19T15:06:27;9.70;;;6.03;;
3321;SDS011;1673;51.388;7.086;2022-08-19T15:08:58;11.90;;;6.30;;
3321;SDS011;1673;51.388;7.086;2022-08-19T15:11:32;11.13;;;6.80;;
3321;SDS011;1673;51.388;7.086;2022-08-19T15:14:03;13.70;;;7.20;;
3321;SDS011;1673;51.388;7.086;2022-08-19T15:16:33;9.55;;;6.20;;
3321;SDS011;1673;51.388;7.086;2022-08-19T15:19:05;10.05;;;6.70;;
3321;SDS011;1673;51.388;7.086;2022-08-19T15:21:35;11.38;;;7.03;;
3321;SDS011;1673;51.388;7.086;2022-08-19T15:24:05;9.73;;;6.73;;